5NE3 weather

Diamond Bar Jones Airport
Stapleton, Nebraska, United States

Public forecast

Using degrees Fahrenheit for public forecast. Weather courtesy of forecast.io.

Closest aviation weather report (METAR) to Diamond Bar Jones Airport

Closest report is North Platte Regional Airport Lee Bird Field, 23.4 nm (43.4 km) SSW. Retrieved 2019/10/15 16:53 UTC (46 minutes ago):

KLBF 151653Z AUTO 36011G21KT 10SM CLR 12/00 A3020 RMK AO2 SLP225 T01220000

Closest aviation forecast (TAF) to Diamond Bar Jones Airport

Forecast is more than 6 hours old.

Closest forecast is North Platte Regional Airport Lee Bird Field, 23.4 nm (43.4 km) SSW. Retrieved 2019/10/15 06:22 UTC (11 hours ago):

TAF KLBF 150520Z 1506/1606 VRB06KT P6SM FEW200 WS020/35040KT FM150800 35010KT P6SM FEW200 WS020/35040KT FM151500 33014G22KT P6SM SKC FM151800 33020G28KT P6SM SKC FM160000 35009KT P6SM SKC FM160300 VRB04KT P6SM SKC